AXM722B WMKL-WMKP
Flight info
| Callsign | AXM722B |
|---|---|
| Flight time | 0h 36m |
| Altitude | 11000 |
| Route | KAPKO1B KAPKO DCT OMBOK |
| Aircraft | A320/M-SDE3FGHIRWY/LB1 |
Departure
| Time | 2026-04-18 01:24 |
|---|---|
| Airport | Langkawi International Airport (WMKL) |
Arrival
| Time | 2026-04-18 02:00 |
|---|---|
| Airport | Penang International Airport (WMKP) |
| Time | Latitude | Longitude | Altitude | Speed | Heading |
|---|---|---|---|---|---|
| 2026-04-18 00:49 | 6.33919 | 99.73143 | 32 ft | 0 kts | 305° |
| 2026-04-18 01:17 | 6.33916 | 99.73147 | 32 ft | 4 kts | 306° |
| 2026-04-18 01:17 | 6.33899 | 99.73168 | 32 ft | 4 kts | 318° |
| 2026-04-18 01:17 | 6.33877 | 99.73182 | 32 ft | 4 kts | 355° |
| 2026-04-18 01:17 | 6.33863 | 99.73180 | 32 ft | 0 kts | 34° |
| 2026-04-18 01:20 | 6.33865 | 99.73181 | 32 ft | 3 kts | 34° |
| 2026-04-18 01:20 | 6.33923 | 99.73221 | 32 ft | 12 kts | 34° |
| 2026-04-18 01:20 | 6.33991 | 99.73267 | 31 ft | 13 kts | 34° |
| 2026-04-18 01:21 | 6.34069 | 99.73320 | 31 ft | 14 kts | 34° |
| 2026-04-18 01:21 | 6.34143 | 99.73379 | 31 ft | 13 kts | 60° |
| 2026-04-18 01:21 | 6.34161 | 99.73471 | 32 ft | 13 kts | 67° |
| 2026-04-18 01:21 | 6.34229 | 99.73526 | 31 ft | 12 kts | 35° |
| 2026-04-18 01:22 | 6.34298 | 99.73572 | 32 ft | 11 kts | 34° |
| 2026-04-18 01:22 | 6.34360 | 99.73614 | 32 ft | 10 kts | 34° |
| 2026-04-18 01:22 | 6.34431 | 99.73665 | 31 ft | 15 kts | 45° |
| 2026-04-18 01:22 | 6.34438 | 99.73765 | 31 ft | 15 kts | 127° |
| 2026-04-18 01:23 | 6.34359 | 99.73809 | 32 ft | 11 kts | 202° |
| 2026-04-18 01:23 | 6.34352 | 99.73805 | 31 ft | 0 kts | 212° |
| 2026-04-18 01:23 | 6.34288 | 99.73761 | 30 ft | 42 kts | 214° |
| 2026-04-18 01:23 | 6.33839 | 99.73455 | 32 ft | 111 kts | 214° |
| 2026-04-18 01:24 | 6.33048 | 99.72915 | 31 ft | 162 kts | 214° |
| 2026-04-18 01:24 | 6.32042 | 99.72236 | 462 ft | 173 kts | 214° |
| 2026-04-18 01:24 | 6.31062 | 99.71582 | 1308 ft | 165 kts | 209° |
| 2026-04-18 01:24 | 6.29996 | 99.71426 | 2004 ft | 157 kts | 164° |
| 2026-04-18 01:25 | 6.28976 | 99.71947 | 2336 ft | 176 kts | 144° |
| 2026-04-18 01:25 | 6.27897 | 99.72687 | 2606 ft | 199 kts | 145° |
| 2026-04-18 01:25 | 6.26669 | 99.73509 | 2902 ft | 224 kts | 146° |
| 2026-04-18 01:25 | 6.25296 | 99.74418 | 3275 ft | 248 kts | 146° |
| 2026-04-18 01:26 | 6.23784 | 99.75412 | 3745 ft | 268 kts | 146° |
| 2026-04-18 01:26 | 6.22202 | 99.76444 | 4539 ft | 274 kts | 146° |
| 2026-04-18 01:26 | 6.20594 | 99.77489 | 5389 ft | 277 kts | 147° |
| 2026-04-18 01:26 | 6.18962 | 99.78549 | 6232 ft | 281 kts | 147° |
| 2026-04-18 01:27 | 6.17308 | 99.79622 | 7052 ft | 285 kts | 147° |
| 2026-04-18 01:27 | 6.15637 | 99.80708 | 7882 ft | 287 kts | 146° |
| 2026-04-18 01:27 | 6.13948 | 99.81803 | 8662 ft | 291 kts | 147° |
| 2026-04-18 01:27 | 6.12234 | 99.82910 | 9411 ft | 294 kts | 146° |
| 2026-04-18 01:28 | 6.10503 | 99.84029 | 10131 ft | 299 kts | 146° |
| 2026-04-18 01:28 | 6.08695 | 99.85202 | 10400 ft | 321 kts | 146° |
| 2026-04-18 01:28 | 6.06756 | 99.86462 | 10565 ft | 343 kts | 146° |
| 2026-04-18 01:28 | 6.04688 | 99.87806 | 10698 ft | 364 kts | 146° |
| 2026-04-18 01:29 | 6.02518 | 99.89214 | 10956 ft | 376 kts | 146° |
| 2026-04-18 01:29 | 6.00283 | 99.90663 | 11044 ft | 392 kts | 146° |
| 2026-04-18 01:29 | 5.97942 | 99.92179 | 11013 ft | 405 kts | 146° |
| 2026-04-18 01:29 | 5.95541 | 99.93676 | 11010 ft | 408 kts | 151° |
| 2026-04-18 01:30 | 5.92986 | 99.94925 | 11013 ft | 409 kts | 154° |
| 2026-04-18 01:30 | 5.90421 | 99.96153 | 11015 ft | 408 kts | 154° |
| 2026-04-18 01:30 | 5.87856 | 99.97383 | 11011 ft | 408 kts | 154° |
| 2026-04-18 01:30 | 5.85291 | 99.98609 | 11011 ft | 409 kts | 154° |
| 2026-04-18 01:31 | 5.82727 | 99.99838 | 11009 ft | 408 kts | 154° |
| 2026-04-18 01:31 | 5.80163 | 100.01068 | 11012 ft | 408 kts | 154° |
| 2026-04-18 01:31 | 5.77600 | 100.02299 | 11012 ft | 408 kts | 154° |
| 2026-04-18 01:31 | 5.75030 | 100.03516 | 11012 ft | 409 kts | 156° |
| 2026-04-18 01:32 | 5.72323 | 100.04391 | 11013 ft | 410 kts | 167° |
| 2026-04-18 01:32 | 5.69505 | 100.04789 | 11071 ft | 410 kts | 173° |
| 2026-04-18 01:32 | 5.66666 | 100.05081 | 11025 ft | 410 kts | 173° |
| 2026-04-18 01:32 | 5.63831 | 100.05378 | 10854 ft | 409 kts | 173° |
| 2026-04-18 01:33 | 5.61035 | 100.05674 | 10597 ft | 396 kts | 173° |
| 2026-04-18 01:33 | 5.58346 | 100.05960 | 10344 ft | 381 kts | 173° |
| 2026-04-18 01:33 | 5.55756 | 100.06235 | 10094 ft | 367 kts | 173° |
| 2026-04-18 01:33 | 5.53262 | 100.06501 | 9880 ft | 353 kts | 173° |
| 2026-04-18 01:34 | 5.50871 | 100.06757 | 9766 ft | 339 kts | 173° |
| 2026-04-18 01:34 | 5.48579 | 100.07002 | 9658 ft | 322 kts | 173° |
| 2026-04-18 01:34 | 5.46414 | 100.07234 | 9544 ft | 304 kts | 173° |
| 2026-04-18 01:34 | 5.44323 | 100.07294 | 9418 ft | 299 kts | 184° |
| 2026-04-18 01:35 | 5.42269 | 100.06980 | 9294 ft | 298 kts | 189° |
| 2026-04-18 01:35 | 5.40227 | 100.06623 | 9218 ft | 298 kts | 189° |
| 2026-04-18 01:35 | 5.38187 | 100.06269 | 9129 ft | 298 kts | 189° |
| 2026-04-18 01:35 | 5.36150 | 100.05915 | 9003 ft | 297 kts | 189° |
| 2026-04-18 01:36 | 5.34108 | 100.05562 | 8613 ft | 298 kts | 189° |
| 2026-04-18 01:36 | 5.32084 | 100.05212 | 8051 ft | 293 kts | 189° |
| 2026-04-18 01:36 | 5.30087 | 100.04869 | 7489 ft | 290 kts | 189° |
| 2026-04-18 01:36 | 5.28109 | 100.04528 | 6937 ft | 287 kts | 189° |
| 2026-04-18 01:37 | 5.26150 | 100.04188 | 6387 ft | 284 kts | 189° |
| 2026-04-18 01:37 | 5.24207 | 100.03848 | 5844 ft | 283 kts | 189° |
| 2026-04-18 01:37 | 5.22276 | 100.03515 | 5298 ft | 280 kts | 187° |
| 2026-04-18 01:37 | 5.20356 | 100.03596 | 4761 ft | 276 kts | 164° |
| 2026-04-18 01:38 | 5.18679 | 100.04456 | 4355 ft | 268 kts | 138° |
| 2026-04-18 01:38 | 5.17548 | 100.05849 | 4321 ft | 250 kts | 116° |
| 2026-04-18 01:38 | 5.16878 | 100.07404 | 4250 ft | 237 kts | 112° |
| 2026-04-18 01:38 | 5.16262 | 100.08903 | 4135 ft | 228 kts | 112° |
| 2026-04-18 01:39 | 5.15670 | 100.10341 | 4029 ft | 218 kts | 111° |
| 2026-04-18 01:39 | 5.15168 | 100.11708 | 3913 ft | 202 kts | 102° |
| 2026-04-18 01:39 | 5.15085 | 100.13074 | 3688 ft | 190 kts | 83° |
| 2026-04-18 01:39 | 5.15416 | 100.14285 | 3486 ft | 173 kts | 65° |
| 2026-04-18 01:40 | 5.16032 | 100.15252 | 3281 ft | 157 kts | 48° |
| 2026-04-18 01:40 | 5.16789 | 100.15979 | 3125 ft | 149 kts | 42° |
| 2026-04-18 01:40 | 5.17556 | 100.16672 | 2938 ft | 148 kts | 43° |
| 2026-04-18 01:40 | 5.18322 | 100.17367 | 2764 ft | 148 kts | 42° |
| 2026-04-18 01:41 | 5.19086 | 100.18057 | 2527 ft | 147 kts | 42° |
| 2026-04-18 01:41 | 5.19837 | 100.18739 | 2335 ft | 145 kts | 41° |
| 2026-04-18 01:41 | 5.20579 | 100.19410 | 2133 ft | 143 kts | 43° |
| 2026-04-18 01:41 | 5.21321 | 100.20082 | 1943 ft | 144 kts | 42° |
| 2026-04-18 01:42 | 5.22063 | 100.20753 | 1748 ft | 143 kts | 42° |
| 2026-04-18 01:42 | 5.22799 | 100.21420 | 1562 ft | 142 kts | 42° |
| 2026-04-18 01:42 | 5.23533 | 100.22084 | 1372 ft | 142 kts | 42° |
| 2026-04-18 01:42 | 5.24265 | 100.22748 | 1184 ft | 141 kts | 42° |
| 2026-04-18 01:43 | 5.24993 | 100.23407 | 995 ft | 141 kts | 42° |
| 2026-04-18 01:43 | 5.25720 | 100.24066 | 809 ft | 141 kts | 42° |
| 2026-04-18 01:43 | 5.26445 | 100.24723 | 625 ft | 140 kts | 43° |
| 2026-04-18 01:43 | 5.27169 | 100.25378 | 429 ft | 140 kts | 42° |
| 2026-04-18 01:44 | 5.27893 | 100.26033 | 250 ft | 140 kts | 42° |
| 2026-04-18 01:44 | 5.28604 | 100.26680 | 69 ft | 140 kts | 43° |
| 2026-04-18 01:44 | 5.29271 | 100.27285 | 39 ft | 119 kts | 44° |
| 2026-04-18 01:44 | 5.29951 | 100.27933 | 522 ft | 139 kts | 44° |
| 2026-04-18 01:45 | 5.30660 | 100.28622 | 1328 ft | 145 kts | 49° |
| 2026-04-18 01:45 | 5.30975 | 100.29641 | 1761 ft | 171 kts | 102° |
| 2026-04-18 01:45 | 5.30319 | 100.30681 | 2156 ft | 193 kts | 138° |
| 2026-04-18 01:45 | 5.29159 | 100.31541 | 2517 ft | 216 kts | 146° |
| 2026-04-18 01:46 | 5.27882 | 100.32362 | 3105 ft | 224 kts | 147° |
| 2026-04-18 01:46 | 5.26556 | 100.33223 | 3836 ft | 228 kts | 146° |
| 2026-04-18 01:46 | 5.25215 | 100.34127 | 4256 ft | 235 kts | 145° |
| 2026-04-18 01:46 | 5.23876 | 100.35065 | 4308 ft | 234 kts | 144° |
| 2026-04-18 01:47 | 5.22557 | 100.36018 | 4309 ft | 233 kts | 143° |
| 2026-04-18 01:47 | 5.21254 | 100.36983 | 4335 ft | 233 kts | 143° |
| 2026-04-18 01:47 | 5.19958 | 100.37959 | 4351 ft | 233 kts | 142° |
| 2026-04-18 01:47 | 5.18664 | 100.38942 | 4321 ft | 233 kts | 142° |
| 2026-04-18 01:48 | 5.17371 | 100.39925 | 4310 ft | 233 kts | 142° |
| 2026-04-18 01:48 | 5.16079 | 100.40909 | 4324 ft | 233 kts | 142° |
| 2026-04-18 01:48 | 5.14786 | 100.41892 | 4327 ft | 233 kts | 142° |
| 2026-04-18 01:48 | 5.13493 | 100.42876 | 4313 ft | 233 kts | 142° |
| 2026-04-18 01:49 | 5.12202 | 100.43858 | 4315 ft | 233 kts | 142° |
| 2026-04-18 01:49 | 5.10898 | 100.44817 | 4316 ft | 233 kts | 149° |
| 2026-04-18 01:49 | 5.09371 | 100.45304 | 4314 ft | 233 kts | 179° |
| 2026-04-18 01:49 | 5.07799 | 100.44973 | 4316 ft | 233 kts | 200° |
| 2026-04-18 01:50 | 5.06281 | 100.44388 | 4313 ft | 234 kts | 201° |
| 2026-04-18 01:50 | 5.04708 | 100.44015 | 4325 ft | 233 kts | 178° |
| 2026-04-18 01:50 | 5.03176 | 100.44464 | 4337 ft | 232 kts | 145° |
| 2026-04-18 01:50 | 5.02117 | 100.45653 | 4317 ft | 231 kts | 113° |
| 2026-04-18 01:51 | 5.01838 | 100.47212 | 4315 ft | 229 kts | 83° |
| 2026-04-18 01:51 | 5.02334 | 100.48713 | 4335 ft | 229 kts | 56° |
| 2026-04-18 01:51 | 5.03468 | 100.49810 | 4339 ft | 228 kts | 28° |
| 2026-04-18 01:51 | 5.04984 | 100.50241 | 4320 ft | 229 kts | 0° |
| 2026-04-18 01:52 | 5.06045 | 100.50095 | 4313 ft | 229 kts | 341° |
| 2026-04-18 01:52 | 5.07395 | 100.49270 | 4315 ft | 230 kts | 313° |
| 2026-04-18 01:52 | 5.08200 | 100.47902 | 4314 ft | 231 kts | 285° |
| 2026-04-18 01:52 | 5.08507 | 100.46316 | 4316 ft | 232 kts | 280° |
| 2026-04-18 01:53 | 5.08785 | 100.44722 | 4313 ft | 232 kts | 280° |
| 2026-04-18 01:53 | 5.09061 | 100.43141 | 4093 ft | 229 kts | 280° |
| 2026-04-18 01:53 | 5.09336 | 100.41569 | 3782 ft | 229 kts | 280° |
| 2026-04-18 01:54 | 5.09891 | 100.38448 | 3221 ft | 228 kts | 280° |
| 2026-04-18 01:54 | 5.10171 | 100.36865 | 2952 ft | 226 kts | 280° |
| 2026-04-18 01:54 | 5.10444 | 100.35321 | 2684 ft | 224 kts | 280° |
| 2026-04-18 01:54 | 5.10717 | 100.33771 | 2429 ft | 226 kts | 280° |
| 2026-04-18 01:55 | 5.10985 | 100.32248 | 2170 ft | 224 kts | 280° |
| 2026-04-18 01:55 | 5.11261 | 100.30692 | 2014 ft | 224 kts | 281° |
| 2026-04-18 01:55 | 5.11532 | 100.29169 | 2008 ft | 225 kts | 281° |
| 2026-04-18 01:55 | 5.11809 | 100.27626 | 2010 ft | 225 kts | 281° |
| 2026-04-18 01:56 | 5.12232 | 100.26123 | 2006 ft | 225 kts | 298° |
| 2026-04-18 01:56 | 5.13118 | 100.24814 | 2043 ft | 224 kts | 308° |
| 2026-04-18 01:56 | 5.14064 | 100.23600 | 2049 ft | 224 kts | 305° |
| 2026-04-18 01:56 | 5.14891 | 100.22250 | 2032 ft | 224 kts | 300° |
| 2026-04-18 01:57 | 5.15757 | 100.20991 | 2025 ft | 217 kts | 315° |
| 2026-04-18 01:57 | 5.16944 | 100.20090 | 2023 ft | 213 kts | 333° |
| 2026-04-18 01:57 | 5.18333 | 100.19626 | 2008 ft | 211 kts | 352° |
| 2026-04-18 01:57 | 5.19791 | 100.19632 | 2009 ft | 210 kts | 10° |
| 2026-04-18 01:58 | 5.21170 | 100.20104 | 1895 ft | 210 kts | 28° |
| 2026-04-18 01:58 | 5.22320 | 100.20981 | 1675 ft | 207 kts | 42° |
| 2026-04-18 01:58 | 5.23387 | 100.21950 | 1406 ft | 206 kts | 43° |
| 2026-04-18 01:58 | 5.24430 | 100.22896 | 1136 ft | 195 kts | 42° |
| 2026-04-18 01:59 | 5.25389 | 100.23765 | 901 ft | 177 kts | 42° |
| 2026-04-18 01:59 | 5.26243 | 100.24539 | 672 ft | 156 kts | 42° |
| 2026-04-18 01:59 | 5.27019 | 100.25241 | 470 ft | 146 kts | 41° |
| 2026-04-18 01:59 | 5.27758 | 100.25911 | 283 ft | 141 kts | 42° |
| 2026-04-18 02:00 | 5.28485 | 100.26569 | 98 ft | 140 kts | 42° |
| 2026-04-18 02:00 | 5.29172 | 100.27192 | 27 ft | 119 kts | 41° |
| 2026-04-18 02:00 | 5.29650 | 100.27629 | 26 ft | 44 kts | 41° |
| 2026-04-18 02:00 | 5.29796 | 100.27756 | 27 ft | 20 kts | 38° |
| 2026-04-18 02:01 | 5.29937 | 100.27821 | 26 ft | 23 kts | 19° |
| 2026-04-18 02:01 | 5.30039 | 100.27846 | 24 ft | 9 kts | 7° |
| 2026-04-18 02:01 | 5.30108 | 100.27839 | 23 ft | 12 kts | 326° |
| 2026-04-18 02:01 | 5.30098 | 100.27778 | 23 ft | 10 kts | 228° |
| 2026-04-18 02:02 | 5.30019 | 100.27700 | 23 ft | 18 kts | 221° |
| 2026-04-18 02:02 | 5.29925 | 100.27613 | 23 ft | 19 kts | 227° |
| 2026-04-18 02:02 | 5.29822 | 100.27519 | 23 ft | 22 kts | 221° |
| 2026-04-18 02:02 | 5.29701 | 100.27410 | 23 ft | 24 kts | 223° |
| 2026-04-18 02:03 | 5.29571 | 100.27291 | 23 ft | 26 kts | 222° |
| 2026-04-18 02:03 | 5.29433 | 100.27166 | 23 ft | 27 kts | 223° |
| 2026-04-18 02:03 | 5.29351 | 100.27031 | 23 ft | 22 kts | 301° |
| 2026-04-18 02:03 | 5.29384 | 100.26912 | 23 ft | 16 kts | 221° |
| 2026-04-18 02:04 | 5.29307 | 100.26834 | 24 ft | 15 kts | 223° |
| 2026-04-18 02:04 | 5.29230 | 100.26765 | 23 ft | 14 kts | 221° |
| 2026-04-18 02:04 | 5.29178 | 100.26706 | 23 ft | 8 kts | 271° |
| 2026-04-18 02:04 | 5.29208 | 100.26665 | 23 ft | 7 kts | 312° |
| 2026-04-18 02:05 | 5.29224 | 100.26646 | 23 ft | 0 kts | 311° |